sensor_id;sensor_type;location;lat;lon;timestamp;P1;P2;P0
78063;PMS5003;67429;51.596;-3.264;2023-02-23T00:03:27;14;12;
78063;PMS5003;67429;51.596;-3.264;2023-02-23T00:05:52;9;9;
78063;PMS5003;67429;51.596;-3.264;2023-02-23T00:08:18;14;13;
78063;PMS5003;67429;51.596;-3.264;2023-02-23T00:10:44;12;10;
78063;PMS5003;67429;51.596;-3.264;2023-02-23T00:13:10;12;12;
78063;PMS5003;67429;51.596;-3.264;2023-02-23T00:15:36;10;10;
78063;PMS5003;67429;51.596;-3.264;2023-02-23T00:18:01;10;10;
78063;PMS5003;67429;51.596;-3.264;2023-02-23T00:20:27;14;10;
78063;PMS5003;67429;51.596;-3.264;2023-02-23T00:22:53;9;8;
78063;PMS5003;67429;51.596;-3.264;2023-02-23T00:25:18;9;9;
78063;PMS5003;67429;51.596;-3.264;2023-02-23T00:27:44;7;7;
78063;PMS5003;67429;51.596;-3.264;2023-02-23T00:30:10;6;6;
78063;PMS5003;67429;51.596;-3.264;2023-02-23T00:32:35;9;9;
78063;PMS5003;67429;51.596;-3.264;2023-02-23T00:35:01;7;7;
78063;PMS5003;67429;51.596;-3.264;2023-02-23T00:37:27;6;6;
78063;PMS5003;67429;51.596;-3.264;2023-02-23T00:39:53;7;7;
78063;PMS5003;67429;51.596;-3.264;2023-02-23T00:42:18;7;7;
78063;PMS5003;67429;51.596;-3.264;2023-02-23T00:44:44;4;4;
78063;PMS5003;67429;51.596;-3.264;2023-02-23T00:47:10;3;3;
78063;PMS5003;67429;51.596;-3.264;2023-02-23T00:49:36;4;4;
78063;PMS5003;67429;51.596;-3.264;2023-02-23T00:52:01;3;3;
78063;PMS5003;67429;51.596;-3.264;2023-02-23T00:54:27;2;2;
78063;PMS5003;67429;51.596;-3.264;2023-02-23T00:56:53;3;3;
78063;PMS5003;67429;51.596;-3.264;2023-02-23T00:59:19;1;1;
78063;PMS5003;67429;51.596;-3.264;2023-02-23T01:01:45;2;2;
78063;PMS5003;67429;51.596;-3.264;2023-02-23T01:04:11;2;2;
78063;PMS5003;67429;51.596;-3.264;2023-02-23T01:06:36;2;2;
78063;PMS5003;67429;51.596;-3.264;2023-02-23T01:09:05;3;3;
78063;PMS5003;67429;51.596;-3.264;2023-02-23T01:11:28;2;2;
78063;PMS5003;67429;51.596;-3.264;2023-02-23T01:13:54;2;2;
78063;PMS5003;67429;51.596;-3.264;2023-02-23T01:16:20;3;3;
78063;PMS5003;67429;51.596;-3.264;2023-02-23T01:18:45;1;1;
78063;PMS5003;67429;51.596;-3.264;2023-02-23T01:21:15;2;2;
78063;PMS5003;67429;51.596;-3.264;2023-02-23T01:23:37;2;2;
78063;PMS5003;67429;51.596;-3.264;2023-02-23T01:26:02;2;2;
78063;PMS5003;67429;51.596;-3.264;2023-02-23T01:28:28;1;1;
78063;PMS5003;67429;51.596;-3.264;2023-02-23T01:30:54;1;1;
78063;PMS5003;67429;51.596;-3.264;2023-02-23T01:33:20;2;1;
78063;PMS5003;67429;51.596;-3.264;2023-02-23T01:38:11;0;0;
78063;PMS5003;67429;51.596;-3.264;2023-02-23T01:40:41;2;1;
78063;PMS5003;67429;51.596;-3.264;2023-02-23T01:43:10;0;0;
78063;PMS5003;67429;51.596;-3.264;2023-02-23T01:45:30;0;0;
78063;PMS5003;67429;51.596;-3.264;2023-02-23T01:47:56;2;2;
78063;PMS5003;67429;51.596;-3.264;2023-02-23T01:50:21;1;1;
78063;PMS5003;67429;51.596;-3.264;2023-02-23T01:52:47;2;1;
78063;PMS5003;67429;51.596;-3.264;2023-02-23T01:55:12;1;1;
78063;PMS5003;67429;51.596;-3.264;2023-02-23T01:57:38;0;0;
78063;PMS5003;67429;51.596;-3.264;2023-02-23T02:00:04;1;1;
78063;PMS5003;67429;51.596;-3.264;2023-02-23T02:02:29;1;1;
78063;PMS5003;67429;51.596;-3.264;2023-02-23T02:04:55;0;0;
78063;PMS5003;67429;51.596;-3.264;2023-02-23T02:07:21;0;0;
78063;PMS5003;67429;51.596;-3.264;2023-02-23T02:09:47;0;0;
78063;PMS5003;67429;51.596;-3.264;2023-02-23T02:12:12;1;1;
78063;PMS5003;67429;51.596;-3.264;2023-02-23T02:14:39;2;1;
78063;PMS5003;67429;51.596;-3.264;2023-02-23T02:17:06;1;1;
78063;PMS5003;67429;51.596;-3.264;2023-02-23T02:24:27;0;0;
78063;PMS5003;67429;51.596;-3.264;2023-02-23T02:26:50;1;1;
78063;PMS5003;67429;51.596;-3.264;2023-02-23T02:29:23;2;2;
78063;PMS5003;67429;51.596;-3.264;2023-02-23T02:34:10;1;1;
78063;PMS5003;67429;51.596;-3.264;2023-02-23T02:38:58;2;2;
78063;PMS5003;67429;51.596;-3.264;2023-02-23T02:41:24;2;2;
78063;PMS5003;67429;51.596;-3.264;2023-02-23T02:43:50;5;5;
78063;PMS5003;67429;51.596;-3.264;2023-02-23T02:46:14;6;6;
78063;PMS5003;67429;51.596;-3.264;2023-02-23T02:48:41;5;5;
78063;PMS5003;67429;51.596;-3.264;2023-02-23T02:51:06;6;6;
78063;PMS5003;67429;51.596;-3.264;2023-02-23T02:53:33;6;5;
78063;PMS5003;67429;51.596;-3.264;2023-02-23T02:55:57;7;5;
78063;PMS5003;67429;51.596;-3.264;2023-02-23T02:58:23;7;7;
78063;PMS5003;67429;51.596;-3.264;2023-02-23T03:00:49;5;5;
78063;PMS5003;67429;51.596;-3.264;2023-02-23T03:05:41;8;8;
78063;PMS5003;67429;51.596;-3.264;2023-02-23T03:08:09;6;6;
78063;PMS5003;67429;51.596;-3.264;2023-02-23T03:10:32;7;7;
78063;PMS5003;67429;51.596;-3.264;2023-02-23T03:13:00;8;7;
78063;PMS5003;67429;51.596;-3.264;2023-02-23T03:15:28;8;8;
78063;PMS5003;67429;51.596;-3.264;2023-02-23T03:17:52;11;11;
78063;PMS5003;67429;51.596;-3.264;2023-02-23T03:20:17;9;9;
78063;PMS5003;67429;51.596;-3.264;2023-02-23T03:22:43;8;8;
78063;PMS5003;67429;51.596;-3.264;2023-02-23T03:25:07;16;16;
78063;PMS5003;67429;51.596;-3.264;2023-02-23T03:27:37;14;14;
78063;PMS5003;67429;51.596;-3.264;2023-02-23T03:29:59;16;14;
78063;PMS5003;67429;51.596;-3.264;2023-02-23T03:32:25;13;13;
78063;PMS5003;67429;51.596;-3.264;2023-02-23T03:34:50;12;12;
78063;PMS5003;67429;51.596;-3.264;2023-02-23T03:37:16;13;13;
78063;PMS5003;67429;51.596;-3.264;2023-02-23T03:39:41;13;13;
78063;PMS5003;67429;51.596;-3.264;2023-02-23T03:42:08;12;11;
78063;PMS5003;67429;51.596;-3.264;2023-02-23T03:44:33;11;9;
78063;PMS5003;67429;51.596;-3.264;2023-02-23T03:46:58;13;12;
78063;PMS5003;67429;51.596;-3.264;2023-02-23T03:49:24;14;13;
78063;PMS5003;67429;51.596;-3.264;2023-02-23T03:51:50;13;12;
78063;PMS5003;67429;51.596;-3.264;2023-02-23T03:54:16;11;10;
78063;PMS5003;67429;51.596;-3.264;2023-02-23T03:56:43;12;10;
78063;PMS5003;67429;51.596;-3.264;2023-02-23T03:59:07;11;11;
78063;PMS5003;67429;51.596;-3.264;2023-02-23T04:01:33;11;11;
78063;PMS5003;67429;51.596;-3.264;2023-02-23T04:03:59;9;9;
78063;PMS5003;67429;51.596;-3.264;2023-02-23T04:06:25;8;8;
78063;PMS5003;67429;51.596;-3.264;2023-02-23T04:08:50;11;11;
78063;PMS5003;67429;51.596;-3.264;2023-02-23T04:11:18;8;7;
78063;PMS5003;67429;51.596;-3.264;2023-02-23T04:13:42;7;7;
78063;PMS5003;67429;51.596;-3.264;2023-02-23T04:16:08;7;7;
78063;PMS5003;67429;51.596;-3.264;2023-02-23T04:18:34;7;7;
78063;PMS5003;67429;51.596;-3.264;2023-02-23T04:20:59;8;8;
78063;PMS5003;67429;51.596;-3.264;2023-02-23T04:23:25;6;6;
78063;PMS5003;67429;51.596;-3.264;2023-02-23T04:25:51;4;4;
78063;PMS5003;67429;51.596;-3.264;2023-02-23T04:28:17;8;8;
78063;PMS5003;67429;51.596;-3.264;2023-02-23T04:30:42;3;3;
78063;PMS5003;67429;51.596;-3.264;2023-02-23T04:33:08;5;5;
78063;PMS5003;67429;51.596;-3.264;2023-02-23T04:35:34;6;6;
78063;PMS5003;67429;51.596;-3.264;2023-02-23T04:38:00;3;3;
78063;PMS5003;67429;51.596;-3.264;2023-02-23T04:40:26;6;6;
78063;PMS5003;67429;51.596;-3.264;2023-02-23T04:42:52;6;5;
78063;PMS5003;67429;51.596;-3.264;2023-02-23T04:45:17;4;3;
78063;PMS5003;67429;51.596;-3.264;2023-02-23T04:47:43;4;3;
78063;PMS5003;67429;51.596;-3.264;2023-02-23T04:50:09;4;4;
78063;PMS5003;67429;51.596;-3.264;2023-02-23T04:52:35;7;7;
78063;PMS5003;67429;51.596;-3.264;2023-02-23T04:55:01;6;6;
78063;PMS5003;67429;51.596;-3.264;2023-02-23T04:57:26;3;3;
78063;PMS5003;67429;51.596;-3.264;2023-02-23T04:59:52;4;4;
78063;PMS5003;67429;51.596;-3.264;2023-02-23T05:02:18;4;4;
78063;PMS5003;67429;51.596;-3.264;2023-02-23T05:04:44;6;6;
78063;PMS5003;67429;51.596;-3.264;2023-02-23T05:07:09;6;5;
78063;PMS5003;67429;51.596;-3.264;2023-02-23T05:09:35;7;7;
78063;PMS5003;67429;51.596;-3.264;2023-02-23T05:12:01;4;4;
78063;PMS5003;67429;51.596;-3.264;2023-02-23T05:14:27;6;6;
78063;PMS5003;67429;51.596;-3.264;2023-02-23T05:16:53;6;6;
78063;PMS5003;67429;51.596;-3.264;2023-02-23T05:19:18;6;5;
78063;PMS5003;67429;51.596;-3.264;2023-02-23T05:21:44;8;6;
78063;PMS5003;67429;51.596;-3.264;2023-02-23T05:24:10;6;6;
78063;PMS5003;67429;51.596;-3.264;2023-02-23T05:26:36;8;8;
78063;PMS5003;67429;51.596;-3.264;2023-02-23T05:29:02;7;7;
78063;PMS5003;67429;51.596;-3.264;2023-02-23T05:31:27;8;8;
78063;PMS5003;67429;51.596;-3.264;2023-02-23T05:33:53;7;7;
78063;PMS5003;67429;51.596;-3.264;2023-02-23T05:36:19;7;7;
78063;PMS5003;67429;51.596;-3.264;2023-02-23T05:38:45;7;7;
78063;PMS5003;67429;51.596;-3.264;2023-02-23T05:41:11;4;4;
78063;PMS5003;67429;51.596;-3.264;2023-02-23T05:43:37;7;7;
78063;PMS5003;67429;51.596;-3.264;2023-02-23T05:46:04;6;6;
78063;PMS5003;67429;51.596;-3.264;2023-02-23T05:48:28;6;4;
78063;PMS5003;67429;51.596;-3.264;2023-02-23T05:50:54;7;7;
78063;PMS5003;67429;51.596;-3.264;2023-02-23T05:53:20;7;7;
78063;PMS5003;67429;51.596;-3.264;2023-02-23T05:55:46;7;7;
78063;PMS5003;67429;51.596;-3.264;2023-02-23T05:58:11;7;6;
78063;PMS5003;67429;51.596;-3.264;2023-02-23T06:00:37;4;4;
78063;PMS5003;67429;51.596;-3.264;2023-02-23T06:03:03;6;6;
78063;PMS5003;67429;51.596;-3.264;2023-02-23T06:05:28;4;4;
78063;PMS5003;67429;51.596;-3.264;2023-02-23T06:07:54;7;7;
78063;PMS5003;67429;51.596;-3.264;2023-02-23T06:10:20;4;4;
78063;PMS5003;67429;51.596;-3.264;2023-02-23T06:12:46;8;8;
78063;PMS5003;67429;51.596;-3.264;2023-02-23T06:15:12;7;7;
78063;PMS5003;67429;51.596;-3.264;2023-02-23T06:17:38;7;7;
78063;PMS5003;67429;51.596;-3.264;2023-02-23T06:20:04;7;7;
78063;PMS5003;67429;51.596;-3.264;2023-02-23T06:22:29;8;8;
78063;PMS5003;67429;51.596;-3.264;2023-02-23T06:24:55;9;8;
78063;PMS5003;67429;51.596;-3.264;2023-02-23T06:27:21;7;7;
78063;PMS5003;67429;51.596;-3.264;2023-02-23T06:29:47;8;8;
78063;PMS5003;67429;51.596;-3.264;2023-02-23T06:32:12;9;8;
78063;PMS5003;67429;51.596;-3.264;2023-02-23T06:34:38;6;6;
78063;PMS5003;67429;51.596;-3.264;2023-02-23T06:37:04;7;7;
78063;PMS5003;67429;51.596;-3.264;2023-02-23T06:39:30;6;6;
78063;PMS5003;67429;51.596;-3.264;2023-02-23T06:41:55;7;7;
78063;PMS5003;67429;51.596;-3.264;2023-02-23T06:44:21;7;7;
78063;PMS5003;67429;51.596;-3.264;2023-02-23T06:46:47;9;7;
78063;PMS5003;67429;51.596;-3.264;2023-02-23T06:49:12;8;8;
78063;PMS5003;67429;51.596;-3.264;2023-02-23T06:51:39;7;7;
78063;PMS5003;67429;51.596;-3.264;2023-02-23T06:54:04;6;6;
78063;PMS5003;67429;51.596;-3.264;2023-02-23T06:56:30;8;7;
78063;PMS5003;67429;51.596;-3.264;2023-02-23T06:58:56;4;4;
78063;PMS5003;67429;51.596;-3.264;2023-02-23T07:01:22;7;7;
78063;PMS5003;67429;51.596;-3.264;2023-02-23T07:03:47;4;4;
78063;PMS5003;67429;51.596;-3.264;2023-02-23T07:06:13;6;6;
78063;PMS5003;67429;51.596;-3.264;2023-02-23T07:08:39;8;8;
78063;PMS5003;67429;51.596;-3.264;2023-02-23T07:11:05;7;7;
78063;PMS5003;67429;51.596;-3.264;2023-02-23T07:13:30;8;6;
78063;PMS5003;67429;51.596;-3.264;2023-02-23T07:15:56;9;8;
78063;PMS5003;67429;51.596;-3.264;2023-02-23T07:18:22;8;8;
78063;PMS5003;67429;51.596;-3.264;2023-02-23T07:20:48;7;7;
78063;PMS5003;67429;51.596;-3.264;2023-02-23T07:23:13;7;7;
78063;PMS5003;67429;51.596;-3.264;2023-02-23T07:25:39;6;6;
78063;PMS5003;67429;51.596;-3.264;2023-02-23T07:28:05;6;6;
78063;PMS5003;67429;51.596;-3.264;2023-02-23T07:30:31;7;4;
78063;PMS5003;67429;51.596;-3.264;2023-02-23T07:32:56;12;11;
78063;PMS5003;67429;51.596;-3.264;2023-02-23T07:35:21;6;6;
78063;PMS5003;67429;51.596;-3.264;2023-02-23T07:37:47;7;7;
78063;PMS5003;67429;51.596;-3.264;2023-02-23T07:40:13;8;8;
78063;PMS5003;67429;51.596;-3.264;2023-02-23T07:42:38;4;4;
78063;PMS5003;67429;51.596;-3.264;2023-02-23T07:45:05;6;4;
78063;PMS5003;67429;51.596;-3.264;2023-02-23T07:47:29;8;7;
78063;PMS5003;67429;51.596;-3.264;2023-02-23T07:49:55;7;6;
78063;PMS5003;67429;51.596;-3.264;2023-02-23T07:52:21;6;6;
78063;PMS5003;67429;51.596;-3.264;2023-02-23T07:54:46;8;7;
78063;PMS5003;67429;51.596;-3.264;2023-02-23T07:57:12;7;7;
78063;PMS5003;67429;51.596;-3.264;2023-02-23T07:59:38;9;8;
78063;PMS5003;67429;51.596;-3.264;2023-02-23T08:02:04;9;9;
78063;PMS5003;67429;51.596;-3.264;2023-02-23T08:04:30;8;7;
78063;PMS5003;67429;51.596;-3.264;2023-02-23T08:06:55;6;6;
78063;PMS5003;67429;51.596;-3.264;2023-02-23T08:09:21;6;6;
78063;PMS5003;67429;51.596;-3.264;2023-02-23T08:11:47;7;6;
78063;PMS5003;67429;51.596;-3.264;2023-02-23T08:14:13;7;7;
78063;PMS5003;67429;51.596;-3.264;2023-02-23T08:16:39;12;11;
78063;PMS5003;67429;51.596;-3.264;2023-02-23T08:19:03;9;9;
78063;PMS5003;67429;51.596;-3.264;2023-02-23T08:21:29;6;4;
78063;PMS5003;67429;51.596;-3.264;2023-02-23T08:23:54;8;7;
78063;PMS5003;67429;51.596;-3.264;2023-02-23T08:26:20;7;7;
78063;PMS5003;67429;51.596;-3.264;2023-02-23T08:28:46;8;8;
78063;PMS5003;67429;51.596;-3.264;2023-02-23T08:31:12;9;8;
78063;PMS5003;67429;51.596;-3.264;2023-02-23T08:33:37;8;7;
78063;PMS5003;67429;51.596;-3.264;2023-02-23T08:36:03;6;4;
78063;PMS5003;67429;51.596;-3.264;2023-02-23T08:38:29;12;11;
78063;PMS5003;67429;51.596;-3.264;2023-02-23T08:40:54;7;6;
78063;PMS5003;67429;51.596;-3.264;2023-02-23T08:43:20;6;6;
78063;PMS5003;67429;51.596;-3.264;2023-02-23T08:45:46;7;7;
78063;PMS5003;67429;51.596;-3.264;2023-02-23T08:48:11;6;6;
78063;PMS5003;67429;51.596;-3.264;2023-02-23T08:50:37;6;4;
78063;PMS5003;67429;51.596;-3.264;2023-02-23T08:53:03;4;4;
78063;PMS5003;67429;51.596;-3.264;2023-02-23T08:55:28;4;4;
78063;PMS5003;67429;51.596;-3.264;2023-02-23T08:57:54;6;6;
78063;PMS5003;67429;51.596;-3.264;2023-02-23T09:00:20;4;3;
78063;PMS5003;67429;51.596;-3.264;2023-02-23T09:02:46;4;3;
78063;PMS5003;67429;51.596;-3.264;2023-02-23T09:05:11;8;7;
78063;PMS5003;67429;51.596;-3.264;2023-02-23T09:07:38;4;4;
78063;PMS5003;67429;51.596;-3.264;2023-02-23T09:10:03;6;6;
78063;PMS5003;67429;51.596;-3.264;2023-02-23T09:12:29;6;4;
78063;PMS5003;67429;51.596;-3.264;2023-02-23T09:14:54;4;4;
78063;PMS5003;67429;51.596;-3.264;2023-02-23T09:17:20;6;6;
78063;PMS5003;67429;51.596;-3.264;2023-02-23T09:19:46;7;7;
78063;PMS5003;67429;51.596;-3.264;2023-02-23T09:22:11;3;3;
78063;PMS5003;67429;51.596;-3.264;2023-02-23T09:24:37;5;5;
78063;PMS5003;67429;51.596;-3.264;2023-02-23T09:27:03;7;7;
78063;PMS5003;67429;51.596;-3.264;2023-02-23T09:29:29;4;3;
78063;PMS5003;67429;51.596;-3.264;2023-02-23T09:31:54;4;3;
78063;PMS5003;67429;51.596;-3.264;2023-02-23T09:34:20;3;2;
78063;PMS5003;67429;51.596;-3.264;2023-02-23T09:36:46;5;5;
78063;PMS5003;67429;51.596;-3.264;2023-02-23T09:39:12;3;3;
78063;PMS5003;67429;51.596;-3.264;2023-02-23T09:41:45;3;3;
78063;PMS5003;67429;51.596;-3.264;2023-02-23T09:44:05;5;5;
78063;PMS5003;67429;51.596;-3.264;2023-02-23T09:46:31;4;4;
78063;PMS5003;67429;51.596;-3.264;2023-02-23T09:48:55;3;2;
78063;PMS5003;67429;51.596;-3.264;2023-02-23T09:51:20;2;1;
78063;PMS5003;67429;51.596;-3.264;2023-02-23T09:53:47;7;7;
78063;PMS5003;67429;51.596;-3.264;2023-02-23T09:56:13;3;3;
78063;PMS5003;67429;51.596;-3.264;2023-02-23T09:58:38;4;3;
78063;PMS5003;67429;51.596;-3.264;2023-02-23T10:01:08;5;3;
78063;PMS5003;67429;51.596;-3.264;2023-02-23T10:03:29;2;2;
78063;PMS5003;67429;51.596;-3.264;2023-02-23T10:05:58;4;4;
78063;PMS5003;67429;51.596;-3.264;2023-02-23T10:08:24;3;2;
78063;PMS5003;67429;51.596;-3.264;2023-02-23T10:10:47;2;2;
78063;PMS5003;67429;51.596;-3.264;2023-02-23T10:13:14;4;3;
78063;PMS5003;67429;51.596;-3.264;2023-02-23T10:15:39;2;2;
78063;PMS5003;67429;51.596;-3.264;2023-02-23T10:18:06;5;5;
78063;PMS5003;67429;51.596;-3.264;2023-02-23T10:20:31;3;2;
78063;PMS5003;67429;51.596;-3.264;2023-02-23T10:22:55;3;3;
78063;PMS5003;67429;51.596;-3.264;2023-02-23T10:25:22;4;3;
78063;PMS5003;67429;51.596;-3.264;2023-02-23T10:27:46;3;2;
78063;PMS5003;67429;51.596;-3.264;2023-02-23T10:30:15;3;3;
78063;PMS5003;67429;51.596;-3.264;2023-02-23T10:32:38;3;3;
78063;PMS5003;67429;51.596;-3.264;2023-02-23T10:35:04;2;2;
78063;PMS5003;67429;51.596;-3.264;2023-02-23T10:37:28;4;4;
78063;PMS5003;67429;51.596;-3.264;2023-02-23T10:39:54;2;2;
78063;PMS5003;67429;51.596;-3.264;2023-02-23T10:42:21;2;2;
78063;PMS5003;67429;51.596;-3.264;2023-02-23T10:44:46;5;5;
78063;PMS5003;67429;51.596;-3.264;2023-02-23T10:47:12;3;3;
78063;PMS5003;67429;51.596;-3.264;2023-02-23T10:49:39;7;5;
78063;PMS5003;67429;51.596;-3.264;2023-02-23T10:52:03;3;3;
78063;PMS5003;67429;51.596;-3.264;2023-02-23T10:54:34;7;7;
78063;PMS5003;67429;51.596;-3.264;2023-02-23T10:56:54;3;3;
78063;PMS5003;67429;51.596;-3.264;2023-02-23T10:59:20;4;4;
78063;PMS5003;67429;51.596;-3.264;2023-02-23T11:01:45;3;3;
78063;PMS5003;67429;51.596;-3.264;2023-02-23T11:04:12;3;3;
78063;PMS5003;67429;51.596;-3.264;2023-02-23T11:06:37;4;3;
78063;PMS5003;67429;51.596;-3.264;2023-02-23T11:11:28;3;2;
78063;PMS5003;67429;51.596;-3.264;2023-02-23T11:13:54;5;5;
78063;PMS5003;67429;51.596;-3.264;2023-02-23T11:16:20;2;2;
78063;PMS5003;67429;51.596;-3.264;2023-02-23T11:18:49;3;3;
78063;PMS5003;67429;51.596;-3.264;2023-02-23T11:21:11;5;4;
78063;PMS5003;67429;51.596;-3.264;2023-02-23T11:23:36;8;6;
78063;PMS5003;67429;51.596;-3.264;2023-02-23T11:26:02;4;4;
78063;PMS5003;67429;51.596;-3.264;2023-02-23T11:28:29;4;4;
78063;PMS5003;67429;51.596;-3.264;2023-02-23T11:30:53;9;8;
78063;PMS5003;67429;51.596;-3.264;2023-02-23T11:33:27;5;3;
78063;PMS5003;67429;51.596;-3.264;2023-02-23T11:35:44;5;4;
78063;PMS5003;67429;51.596;-3.264;2023-02-23T11:38:14;3;3;
78063;PMS5003;67429;51.596;-3.264;2023-02-23T11:40:40;3;2;
78063;PMS5003;67429;51.596;-3.264;2023-02-23T11:43:05;2;2;
78063;PMS5003;67429;51.596;-3.264;2023-02-23T11:45:27;2;2;
78063;PMS5003;67429;51.596;-3.264;2023-02-23T11:47:54;2;2;
78063;PMS5003;67429;51.596;-3.264;2023-02-23T11:50:21;4;4;
78063;PMS5003;67429;51.596;-3.264;2023-02-23T11:52:44;3;3;
78063;PMS5003;67429;51.596;-3.264;2023-02-23T11:55:14;4;4;
78063;PMS5003;67429;51.596;-3.264;2023-02-23T11:57:35;4;3;
78063;PMS5003;67429;51.596;-3.264;2023-02-23T12:00:08;4;3;
78063;PMS5003;67429;51.596;-3.264;2023-02-23T12:02:28;3;3;
78063;PMS5003;67429;51.596;-3.264;2023-02-23T12:04:59;3;2;
78063;PMS5003;67429;51.596;-3.264;2023-02-23T12:07:22;3;3;
78063;PMS5003;67429;51.596;-3.264;2023-02-23T12:09:44;4;4;
78063;PMS5003;67429;51.596;-3.264;2023-02-23T12:12:09;4;3;
78063;PMS5003;67429;51.596;-3.264;2023-02-23T12:14:36;3;3;
78063;PMS5003;67429;51.596;-3.264;2023-02-23T12:17:02;4;4;
78063;PMS5003;67429;51.596;-3.264;2023-02-23T12:19:27;5;4;
78063;PMS5003;67429;51.596;-3.264;2023-02-23T12:21:55;3;3;
78063;PMS5003;67429;51.596;-3.264;2023-02-23T12:24:18;3;2;
78063;PMS5003;67429;51.596;-3.264;2023-02-23T12:26:45;3;2;
78063;PMS5003;67429;51.596;-3.264;2023-02-23T12:29:12;4;4;
78063;PMS5003;67429;51.596;-3.264;2023-02-23T12:31:36;2;2;
78063;PMS5003;67429;51.596;-3.264;2023-02-23T12:34:01;5;5;
78063;PMS5003;67429;51.596;-3.264;2023-02-23T12:36:29;4;4;
78063;PMS5003;67429;51.596;-3.264;2023-02-23T12:38:54;4;4;
78063;PMS5003;67429;51.596;-3.264;2023-02-23T12:41:20;4;4;
78063;PMS5003;67429;51.596;-3.264;2023-02-23T12:43:45;5;3;
78063;PMS5003;67429;51.596;-3.264;2023-02-23T12:46:10;3;3;
78063;PMS5003;67429;51.596;-3.264;2023-02-23T12:48:37;3;2;
78063;PMS5003;67429;51.596;-3.264;2023-02-23T12:51:02;5;5;
78063;PMS5003;67429;51.596;-3.264;2023-02-23T12:53:29;4;3;
78063;PMS5003;67429;51.596;-3.264;2023-02-23T12:56:01;3;3;
78063;PMS5003;67429;51.596;-3.264;2023-02-23T12:58:19;2;2;
78063;PMS5003;67429;51.596;-3.264;2023-02-23T13:00:44;3;3;
78063;PMS5003;67429;51.596;-3.264;2023-02-23T13:03:14;2;2;
78063;PMS5003;67429;51.596;-3.264;2023-02-23T13:05:35;4;4;
78063;PMS5003;67429;51.596;-3.264;2023-02-23T13:08:02;3;3;
78063;PMS5003;67429;51.596;-3.264;2023-02-23T13:10:28;3;2;
78063;PMS5003;67429;51.596;-3.264;2023-02-23T13:12:54;4;3;
78063;PMS5003;67429;51.596;-3.264;2023-02-23T13:15:20;3;3;
78063;PMS5003;67429;51.596;-3.264;2023-02-23T13:17:44;2;2;
78063;PMS5003;67429;51.596;-3.264;2023-02-23T13:20:12;4;4;
78063;PMS5003;67429;51.596;-3.264;2023-02-23T13:22:36;3;3;
78063;PMS5003;67429;51.596;-3.264;2023-02-23T13:25:01;3;3;
78063;PMS5003;67429;51.596;-3.264;2023-02-23T13:27:26;5;4;
78063;PMS5003;67429;51.596;-3.264;2023-02-23T13:29:51;3;3;
78063;PMS5003;67429;51.596;-3.264;2023-02-23T13:32:17;2;2;
78063;PMS5003;67429;51.596;-3.264;2023-02-23T13:34:43;3;2;
78063;PMS5003;67429;51.596;-3.264;2023-02-23T13:37:10;3;2;
78063;PMS5003;67429;51.596;-3.264;2023-02-23T13:39:40;4;3;
78063;PMS5003;67429;51.596;-3.264;2023-02-23T13:42:05;3;3;
78063;PMS5003;67429;51.596;-3.264;2023-02-23T13:44:26;4;4;
78063;PMS5003;67429;51.596;-3.264;2023-02-23T13:46:52;4;4;
78063;PMS5003;67429;51.596;-3.264;2023-02-23T13:49:20;5;5;
78063;PMS5003;67429;51.596;-3.264;2023-02-23T13:51:43;3;3;
78063;PMS5003;67429;51.596;-3.264;2023-02-23T13:56:39;3;3;
78063;PMS5003;67429;51.596;-3.264;2023-02-23T13:59:00;3;3;
78063;PMS5003;67429;51.596;-3.264;2023-02-23T14:01:27;3;2;
78063;PMS5003;67429;51.596;-3.264;2023-02-23T14:03:52;4;4;
78063;PMS5003;67429;51.596;-3.264;2023-02-23T14:06:17;3;3;
78063;PMS5003;67429;51.596;-3.264;2023-02-23T14:08:43;2;2;
78063;PMS5003;67429;51.596;-3.264;2023-02-23T14:11:08;3;3;
78063;PMS5003;67429;51.596;-3.264;2023-02-23T14:13:38;3;3;
78063;PMS5003;67429;51.596;-3.264;2023-02-23T14:16:11;3;3;
78063;PMS5003;67429;51.596;-3.264;2023-02-23T14:18:26;3;3;
78063;PMS5003;67429;51.596;-3.264;2023-02-23T14:20:51;4;3;
78063;PMS5003;67429;51.596;-3.264;2023-02-23T14:25:46;3;3;
78063;PMS5003;67429;51.596;-3.264;2023-02-23T14:33:00;3;3;
78063;PMS5003;67429;51.596;-3.264;2023-02-23T14:37:53;2;2;
78063;PMS5003;67429;51.596;-3.264;2023-02-23T14:40:17;4;3;
78063;PMS5003;67429;51.596;-3.264;2023-02-23T14:42:45;2;2;
78063;PMS5003;67429;51.596;-3.264;2023-02-23T14:49:59;5;4;
78063;PMS5003;67429;51.596;-3.264;2023-02-23T14:52:25;7;6;
78063;PMS5003;67429;51.596;-3.264;2023-02-23T14:54:50;5;5;
78063;PMS5003;67429;51.596;-3.264;2023-02-23T14:57:17;4;4;
78063;PMS5003;67429;51.596;-3.264;2023-02-23T14:59:42;4;4;
78063;PMS5003;67429;51.596;-3.264;2023-02-23T15:02:08;4;4;
78063;PMS5003;67429;51.596;-3.264;2023-02-23T15:04:33;4;4;
78063;PMS5003;67429;51.596;-3.264;2023-02-23T15:06:59;3;3;
78063;PMS5003;67429;51.596;-3.264;2023-02-23T15:09:28;5;5;
78063;PMS5003;67429;51.596;-3.264;2023-02-23T15:11:50;4;4;
78063;PMS5003;67429;51.596;-3.264;2023-02-23T15:14:15;4;4;
78063;PMS5003;67429;51.596;-3.264;2023-02-23T15:16:41;4;4;
78063;PMS5003;67429;51.596;-3.264;2023-02-23T15:19:07;5;5;
78063;PMS5003;67429;51.596;-3.264;2023-02-23T15:21:32;5;5;
78063;PMS5003;67429;51.596;-3.264;2023-02-23T15:24:02;5;5;
78063;PMS5003;67429;51.596;-3.264;2023-02-23T15:26:25;5;5;
78063;PMS5003;67429;51.596;-3.264;2023-02-23T15:28:50;13;12;
78063;PMS5003;67429;51.596;-3.264;2023-02-23T15:31:15;7;7;
78063;PMS5003;67429;51.596;-3.264;2023-02-23T15:33:41;8;7;
78063;PMS5003;67429;51.596;-3.264;2023-02-23T15:36:07;4;4;
78063;PMS5003;67429;51.596;-3.264;2023-02-23T15:38:32;5;5;
78063;PMS5003;67429;51.596;-3.264;2023-02-23T15:40:58;5;4;
78063;PMS5003;67429;51.596;-3.264;2023-02-23T15:43:23;3;3;
78063;PMS5003;67429;51.596;-3.264;2023-02-23T15:45:50;5;4;
78063;PMS5003;67429;51.596;-3.264;2023-02-23T15:48:16;4;3;
78063;PMS5003;67429;51.596;-3.264;2023-02-23T15:50:41;2;2;
78063;PMS5003;67429;51.596;-3.264;2023-02-23T15:53:07;3;2;
78063;PMS5003;67429;51.596;-3.264;2023-02-23T15:55:32;3;3;
78063;PMS5003;67429;51.596;-3.264;2023-02-23T15:57:58;4;3;
78063;PMS5003;67429;51.596;-3.264;2023-02-23T16:00:27;5;5;
78063;PMS5003;67429;51.596;-3.264;2023-02-23T16:02:48;6;5;
78063;PMS5003;67429;51.596;-3.264;2023-02-23T16:05:18;4;4;
78063;PMS5003;67429;51.596;-3.264;2023-02-23T16:07:40;6;5;
78063;PMS5003;67429;51.596;-3.264;2023-02-23T16:12:31;3;3;
78063;PMS5003;67429;51.596;-3.264;2023-02-23T16:14:58;4;4;
78063;PMS5003;67429;51.596;-3.264;2023-02-23T16:17:25;4;3;
78063;PMS5003;67429;51.596;-3.264;2023-02-23T16:19:48;3;3;
78063;PMS5003;67429;51.596;-3.264;2023-02-23T16:22:17;4;3;
78063;PMS5003;67429;51.596;-3.264;2023-02-23T16:24:40;5;4;
78063;PMS5003;67429;51.596;-3.264;2023-02-23T16:27:05;5;5;
78063;PMS5003;67429;51.596;-3.264;2023-02-23T16:29:32;4;4;
78063;PMS5003;67429;51.596;-3.264;2023-02-23T16:31:58;6;5;
78063;PMS5003;67429;51.596;-3.264;2023-02-23T16:34:23;2;2;
78063;PMS5003;67429;51.596;-3.264;2023-02-23T16:36:49;7;5;
78063;PMS5003;67429;51.596;-3.264;2023-02-23T16:39:14;4;4;
78063;PMS5003;67429;51.596;-3.264;2023-02-23T16:41:40;3;3;
78063;PMS5003;67429;51.596;-3.264;2023-02-23T16:44:06;3;3;
78063;PMS5003;67429;51.596;-3.264;2023-02-23T16:46:32;4;4;
78063;PMS5003;67429;51.596;-3.264;2023-02-23T16:48:57;2;2;
78063;PMS5003;67429;51.596;-3.264;2023-02-23T16:51:23;2;2;
78063;PMS5003;67429;51.596;-3.264;2023-02-23T16:53:49;4;4;
78063;PMS5003;67429;51.596;-3.264;2023-02-23T16:56:15;5;5;
78063;PMS5003;67429;51.596;-3.264;2023-02-23T16:58:40;9;8;